createdAt,value
2018-09-27T00:00:40.344Z,100240.00
2018-09-27T00:03:09.442Z,100235.00
2018-09-27T00:05:38.452Z,100234.00
2018-09-27T00:08:07.620Z,100226.00
2018-09-27T00:10:36.700Z,100224.00
2018-09-27T00:13:05.740Z,100226.00
2018-09-27T00:15:34.832Z,100220.00
2018-09-27T00:18:03.874Z,100228.00
2018-09-27T00:20:32.893Z,100223.00
2018-09-27T00:23:01.973Z,100223.00
2018-09-27T00:25:31.766Z,100220.00
2018-09-27T00:28:00.809Z,100222.00
2018-09-27T00:30:29.897Z,100221.00
2018-09-27T00:32:58.956Z,100218.00
2018-09-27T00:35:28.009Z,100219.00
2018-09-27T00:37:57.076Z,100226.00
2018-09-27T00:40:26.130Z,100228.00
2018-09-27T00:42:55.224Z,100229.00
2018-09-27T00:45:24.328Z,100219.00
2018-09-27T00:47:53.372Z,100216.00
2018-09-27T00:50:22.501Z,100205.00
2018-09-27T00:52:51.752Z,100206.00
2018-09-27T00:55:20.817Z,100190.00
2018-09-27T00:57:49.943Z,100191.00
2018-09-27T01:00:19.016Z,100189.00
2018-09-27T01:02:48.100Z,100187.00
2018-09-27T01:05:17.184Z,100182.00
2018-09-27T01:07:46.308Z,100187.00
2018-09-27T01:10:15.469Z,100184.00
2018-09-27T01:12:44.732Z,100181.00
2018-09-27T01:15:14.024Z,100176.00
2018-09-27T01:17:43.116Z,100179.00
2018-09-27T01:20:12.124Z,100176.00
2018-09-27T01:22:41.333Z,100177.00
2018-09-27T01:25:10.380Z,100180.00
2018-09-27T01:27:39.472Z,100184.00
2018-09-27T01:30:09.072Z,100175.00
2018-09-27T01:32:38.201Z,100176.00
2018-09-27T01:35:07.292Z,100176.00
2018-09-27T01:37:36.563Z,100173.00
2018-09-27T01:40:05.669Z,100171.00
2018-09-27T01:42:34.741Z,100179.00
2018-09-27T01:45:03.884Z,100172.00
2018-09-27T01:47:32.980Z,100182.00
2018-09-27T01:50:02.056Z,100174.00
2018-09-27T01:52:31.544Z,100178.00
2018-09-27T01:55:00.568Z,100178.00
2018-09-27T01:57:29.668Z,100171.00
2018-09-27T01:59:58.768Z,100168.00
2018-09-27T02:02:27.852Z,100168.00
2018-09-27T02:04:56.904Z,100177.00
2018-09-27T02:07:26.229Z,100166.00
2018-09-27T02:09:55.249Z,100170.00
2018-09-27T02:12:24.260Z,100166.00
2018-09-27T02:14:53.357Z,100156.00
2018-09-27T02:17:22.484Z,100159.00
2018-09-27T02:19:51.520Z,100159.00
2018-09-27T02:22:20.880Z,100153.00
2018-09-27T02:24:49.911Z,100148.00
2018-09-27T02:27:18.968Z,100146.00
2018-09-27T02:29:47.984Z,100137.00
2018-09-27T02:32:17.068Z,100134.00
2018-09-27T02:34:46.201Z,100128.00
2018-09-27T02:37:15.233Z,100125.00
2018-09-27T02:39:44.292Z,100127.00
2018-09-27T02:42:13.426Z,100119.00
2018-09-27T02:44:42.504Z,100120.00
2018-09-27T02:47:11.548Z,100113.00
2018-09-27T02:49:40.673Z,100109.00
2018-09-27T02:52:09.889Z,100097.00
2018-09-27T02:54:39.145Z,100093.00
2018-09-27T02:57:08.692Z,100090.00
2018-09-27T02:59:37.776Z,100093.00
2018-09-27T03:02:06.841Z,100091.00
2018-09-27T03:04:36.010Z,100091.00
2018-09-27T03:07:05.076Z,100096.00
2018-09-27T03:09:34.124Z,100095.00
2018-09-27T03:12:03.244Z,100094.00
2018-09-27T03:14:32.240Z,100099.00
2018-09-27T03:17:01.309Z,100092.00
2018-09-27T03:19:30.397Z,100093.00
2018-09-27T03:21:59.508Z,100091.00
2018-09-27T03:24:28.584Z,100088.00
2018-09-27T03:26:57.670Z,100091.00
2018-09-27T03:29:26.708Z,100095.00
2018-09-27T03:31:55.757Z,100099.00
2018-09-27T03:34:24.868Z,100104.00
2018-09-27T03:36:54.265Z,100102.00
2018-09-27T03:39:23.408Z,100097.00
2018-09-27T03:41:52.457Z,100105.00
2018-09-27T03:44:21.533Z,100101.00
2018-09-27T03:46:50.713Z,100093.00
2018-09-27T03:49:19.740Z,100090.00
2018-09-27T03:51:48.852Z,100099.00
2018-09-27T03:54:17.968Z,100106.00
2018-09-27T03:56:47.472Z,100105.00
2018-09-27T03:59:16.879Z,100104.00
2018-09-27T04:01:45.910Z,100107.00
2018-09-27T04:04:15.065Z,100105.00
2018-09-27T04:06:44.136Z,100099.00
2018-09-27T04:09:13.172Z,100095.00
2018-09-27T04:11:42.249Z,100092.00
2018-09-27T04:14:11.308Z,100092.00
2018-09-27T04:16:40.368Z,100060.00
2018-09-27T04:19:09.424Z,100093.00
2018-09-27T04:21:38.563Z,100086.00
2018-09-27T04:24:07.796Z,100088.00
2018-09-27T04:26:36.821Z,100088.00
2018-09-27T04:29:06.329Z,100082.00
2018-09-27T04:31:35.380Z,100083.00
2018-09-27T04:34:04.440Z,100076.00
2018-09-27T04:36:33.564Z,100083.00
2018-09-27T04:39:02.720Z,100090.00
2018-09-27T04:41:31.770Z,100084.00
2018-09-27T04:44:00.901Z,100084.00
2018-09-27T04:46:30.035Z,100087.00
2018-09-27T04:48:59.052Z,100076.00
2018-09-27T04:51:28.548Z,100075.00
2018-09-27T04:53:57.692Z,100084.00
2018-09-27T04:56:26.784Z,100081.00
2018-09-27T04:58:55.864Z,100083.00
2018-09-27T05:01:24.952Z,100087.00
2018-09-27T05:03:54.115Z,100084.00
2018-09-27T05:06:23.114Z,100080.00
2018-09-27T05:08:52.137Z,100076.00
2018-09-27T05:11:21.504Z,100080.00
2018-09-27T05:13:50.552Z,100081.00
2018-09-27T05:16:19.650Z,100079.00
2018-09-27T05:18:49.320Z,100072.00
2018-09-27T05:21:18.427Z,100072.00
2018-09-27T05:23:47.564Z,100072.00
2018-09-27T05:26:16.640Z,100070.00
2018-09-27T05:28:46.012Z,100070.00
2018-09-27T05:31:15.089Z,100072.00
2018-09-27T05:33:44.154Z,100077.00
2018-09-27T05:36:13.289Z,100069.00
2018-09-27T05:38:42.384Z,100072.00
2018-09-27T05:41:11.500Z,100070.00
2018-09-27T05:43:40.600Z,100066.00
2018-09-27T05:46:10.413Z,100065.00
2018-09-27T05:48:39.452Z,100064.00
2018-09-27T05:51:08.832Z,100066.00
2018-09-27T05:53:37.966Z,100066.00
2018-09-27T05:56:07.078Z,100064.00
2018-09-27T05:58:36.217Z,100061.00
2018-09-27T06:01:05.312Z,100058.00
2018-09-27T06:03:35.402Z,100063.00
2018-09-27T06:06:04.579Z,100062.00
2018-09-27T06:08:33.721Z,100061.00
2018-09-27T06:11:03.162Z,100064.00
2018-09-27T06:13:33.297Z,100058.00
2018-09-27T06:16:02.595Z,100059.00
2018-09-27T06:18:31.800Z,100056.00
2018-09-27T06:21:01.099Z,100053.00
2018-09-27T06:23:30.236Z,100041.00
2018-09-27T06:25:59.324Z,100045.00
2018-09-27T06:28:28.401Z,100044.00
2018-09-27T06:30:57.632Z,100045.00
2018-09-27T06:33:26.718Z,100036.00
2018-09-27T06:35:55.736Z,100027.00
2018-09-27T06:38:24.827Z,100020.00
2018-09-27T06:40:53.850Z,100000.00
2018-09-27T06:43:23.100Z,99996.00
2018-09-27T06:45:52.160Z,99990.00
2018-09-27T06:48:21.302Z,99980.00
2018-09-27T06:50:50.321Z,99973.00
2018-09-27T06:53:19.364Z,99971.00
2018-09-27T06:55:48.564Z,99968.00
2018-09-27T06:58:17.508Z,99956.00
2018-09-27T07:00:46.685Z,99958.00
2018-09-27T07:03:15.789Z,99952.00
2018-09-27T07:05:44.868Z,99952.00
2018-09-27T07:08:13.968Z,99941.00
2018-09-27T07:10:44.144Z,99941.00
2018-09-27T07:13:13.281Z,99930.00
2018-09-27T07:15:42.473Z,99936.00
2018-09-27T07:18:12.573Z,99928.00
2018-09-27T07:20:41.705Z,99926.00
2018-09-27T07:23:10.785Z,99919.00
2018-09-27T07:25:39.881Z,99920.00
2018-09-27T07:28:09.006Z,99916.00
2018-09-27T07:30:38.085Z,99913.00
2018-09-27T07:33:07.522Z,99910.00
2018-09-27T07:35:36.948Z,99908.00
2018-09-27T07:38:06.074Z,99908.00
2018-09-27T07:40:35.680Z,99899.00
2018-09-27T07:43:04.800Z,99894.00
2018-09-27T07:45:33.885Z,99890.00
2018-09-27T07:48:03.041Z,99896.00
2018-09-27T07:50:32.246Z,99888.00
2018-09-27T07:53:01.256Z,99880.00
2018-09-27T07:55:31.276Z,99875.00
2018-09-27T07:58:00.420Z,99873.00
2018-09-27T08:00:29.723Z,99873.00
2018-09-27T08:02:59.111Z,99866.00
2018-09-27T08:05:28.274Z,99867.00
2018-09-27T08:07:57.523Z,99866.00
2018-09-27T08:10:26.818Z,99866.00
2018-09-27T08:12:55.972Z,99862.00
2018-09-27T08:15:25.433Z,99873.00
2018-09-27T08:17:55.543Z,99863.00
2018-09-27T08:20:24.648Z,99867.00
2018-09-27T08:22:53.750Z,99858.00
2018-09-27T08:25:23.280Z,99864.00
2018-09-27T08:27:52.431Z,99859.00
2018-09-27T08:30:21.988Z,99857.00
2018-09-27T08:32:51.064Z,99863.00
2018-09-27T08:35:20.286Z,99865.00
2018-09-27T08:37:49.513Z,99853.00
2018-09-27T08:40:18.628Z,99856.00
2018-09-27T08:42:47.762Z,99845.00
2018-09-27T08:45:17.288Z,99849.00
2018-09-27T08:47:46.332Z,99840.00
2018-09-27T08:50:15.568Z,99840.00
2018-09-27T08:52:44.950Z,99838.00
2018-09-27T08:55:14.107Z,99862.00
2018-09-27T08:57:43.246Z,99857.00
2018-09-27T09:00:12.878Z,99857.00
2018-09-27T09:02:41.985Z,99844.00
2018-09-27T09:05:11.063Z,99830.00
2018-09-27T09:07:40.201Z,99824.00
2018-09-27T09:10:09.286Z,99830.00
2018-09-27T09:12:38.460Z,99812.00
2018-09-27T09:15:07.544Z,99822.00
2018-09-27T09:17:36.624Z,99815.00
2018-09-27T09:20:06.725Z,99807.00
2018-09-27T09:22:35.866Z,99808.00
2018-09-27T09:25:05.245Z,99802.00
2018-09-27T09:27:34.454Z,99800.00
2018-09-27T09:30:03.604Z,99802.00
2018-09-27T09:32:32.708Z,99800.00
2018-09-27T09:35:01.816Z,99803.00
2018-09-27T09:37:30.912Z,99800.00
2018-09-27T09:40:00.042Z,99787.00
2018-09-27T09:42:29.220Z,99799.00
2018-09-27T09:44:58.329Z,99790.00
2018-09-27T09:47:28.004Z,99778.00
2018-09-27T09:49:57.175Z,99773.00
2018-09-27T09:52:26.228Z,99762.00
2018-09-27T09:54:55.332Z,99762.00
2018-09-27T09:57:24.392Z,99759.00
2018-09-27T09:59:53.828Z,99758.00
2018-09-27T10:02:23.060Z,99754.00
2018-09-27T10:04:52.124Z,99749.00
2018-09-27T10:07:21.496Z,99756.00
2018-09-27T10:09:51.107Z,99746.00
2018-09-27T10:12:20.232Z,99743.00
2018-09-27T10:14:49.315Z,99741.00
2018-09-27T10:17:18.428Z,99737.00
2018-09-27T10:19:47.517Z,99734.00
2018-09-27T10:22:16.584Z,99740.00
2018-09-27T10:24:45.814Z,99733.00
2018-09-27T10:27:14.860Z,99728.00
2018-09-27T10:29:43.976Z,99732.00
2018-09-27T10:32:13.092Z,99726.00
2018-09-27T10:34:42.301Z,99719.00
2018-09-27T10:37:11.500Z,99727.00
2018-09-27T10:39:40.589Z,99705.00
2018-09-27T10:42:09.681Z,99718.00
2018-09-27T10:44:38.776Z,99713.00
2018-09-27T10:47:07.953Z,99713.00
2018-09-27T10:49:37.036Z,99705.00
2018-09-27T10:52:06.204Z,99704.00
2018-09-27T10:54:35.456Z,99704.00
2018-09-27T10:57:04.600Z,99703.00
2018-09-27T10:59:33.639Z,99698.00
2018-09-27T11:02:02.704Z,99700.00
2018-09-27T11:04:31.745Z,99693.00
2018-09-27T11:07:00.829Z,99696.00
2018-09-27T11:09:29.932Z,99695.00
2018-09-27T11:11:59.079Z,99690.00
2018-09-27T11:14:28.233Z,99680.00
2018-09-27T11:16:57.384Z,99683.00
2018-09-27T11:19:26.632Z,99683.00
2018-09-27T11:21:55.776Z,99672.00
2018-09-27T11:24:24.880Z,99668.00
2018-09-27T11:26:53.977Z,99662.00
2018-09-27T11:29:28.753Z,99666.00
2018-09-27T11:32:03.111Z,99665.00
2018-09-27T11:34:32.252Z,99656.00
2018-09-27T11:37:01.530Z,99649.00
2018-09-27T11:39:30.675Z,99643.00
2018-09-27T11:41:59.905Z,99639.00
2018-09-27T11:44:29.628Z,99634.00
2018-09-27T11:46:59.830Z,99634.00
2018-09-27T11:49:28.919Z,99628.00
2018-09-27T11:51:58.053Z,99625.00
2018-09-27T11:54:27.481Z,99613.00
2018-09-27T11:56:56.552Z,99610.00
2018-09-27T11:59:25.665Z,99611.00
2018-09-27T12:01:54.724Z,99605.00
2018-09-27T12:04:24.089Z,99602.00
2018-09-27T12:06:53.205Z,99589.00
2018-09-27T12:09:22.308Z,99584.00
2018-09-27T12:11:51.461Z,99577.00
2018-09-27T12:14:21.113Z,99571.00
2018-09-27T12:16:50.238Z,99562.00
2018-09-27T12:19:19.328Z,99561.00
2018-09-27T12:21:48.436Z,99552.00
2018-09-27T12:24:17.830Z,99547.00
2018-09-27T12:26:46.945Z,99542.00
2018-09-27T12:29:16.444Z,99546.00
2018-09-27T12:31:45.636Z,99544.00
2018-09-27T12:34:14.749Z,99539.00
2018-09-27T12:36:43.874Z,99538.00
2018-09-27T12:39:13.296Z,99527.00
2018-09-27T12:41:42.447Z,99521.00
2018-09-27T12:44:11.566Z,99516.00
2018-09-27T12:46:41.143Z,99516.00
2018-09-27T12:49:10.213Z,99507.00
2018-09-27T12:51:39.445Z,99507.00
2018-09-27T12:54:08.471Z,99504.00
2018-09-27T12:56:37.572Z,99498.00
2018-09-27T12:59:06.996Z,99493.00
2018-09-27T13:01:36.435Z,99493.00
2018-09-27T13:04:05.603Z,99488.00
2018-09-27T13:06:34.889Z,99477.00
2018-09-27T13:09:05.853Z,99473.00
2018-09-27T13:11:34.860Z,99477.00
2018-09-27T13:14:04.364Z,99475.00
2018-09-27T13:16:33.536Z,99465.00
2018-09-27T13:19:02.871Z,99452.00
2018-09-27T13:21:31.962Z,99452.00
2018-09-27T13:24:01.072Z,99443.00
2018-09-27T13:26:30.344Z,99446.00
2018-09-27T13:28:59.454Z,99442.00
2018-09-27T13:31:28.508Z,99437.00
2018-09-27T13:33:57.697Z,99434.00
2018-09-27T13:36:26.741Z,99440.00
2018-09-27T13:38:55.886Z,99426.00
2018-09-27T13:41:24.935Z,99432.00
2018-09-27T13:43:54.026Z,99434.00
2018-09-27T13:46:23.184Z,99425.00
2018-09-27T13:48:52.315Z,99419.00
2018-09-27T13:51:21.619Z,99417.00
2018-09-27T13:53:50.664Z,99417.00
2018-09-27T13:56:19.773Z,99418.00
2018-09-27T13:58:48.995Z,99416.00
2018-09-27T14:01:18.100Z,99425.00
2018-09-27T14:03:47.397Z,99417.00
2018-09-27T14:06:16.521Z,99414.00
2018-09-27T14:08:45.568Z,99412.00
2018-09-27T14:11:14.664Z,99417.00
2018-09-27T14:13:43.781Z,99412.00
2018-09-27T14:16:12.856Z,99412.00
2018-09-27T14:18:42.034Z,99407.00
2018-09-27T14:21:11.145Z,99412.00
2018-09-27T14:23:40.777Z,99405.00
2018-09-27T14:26:09.873Z,99411.00
2018-09-27T14:28:39.344Z,99407.00
2018-09-27T14:31:08.672Z,99404.00
2018-09-27T14:33:37.748Z,99399.00
2018-09-27T14:36:07.437Z,99396.00
2018-09-27T14:38:36.552Z,99387.00
2018-09-27T14:41:05.884Z,99390.00
2018-09-27T14:43:34.832Z,99382.00
2018-09-27T14:46:04.128Z,99374.00
2018-09-27T14:48:33.256Z,99379.00
2018-09-27T14:51:02.340Z,99382.00
2018-09-27T14:53:31.434Z,99379.00
2018-09-27T14:56:00.822Z,99377.00
2018-09-27T14:58:29.976Z,99382.00
2018-09-27T15:00:59.027Z,99381.00
2018-09-27T15:03:28.120Z,99373.00
2018-09-27T15:05:57.216Z,99367.00
2018-09-27T15:08:26.300Z,99363.00
2018-09-27T15:10:55.456Z,99361.00
2018-09-27T15:13:24.607Z,99361.00
2018-09-27T15:15:53.933Z,99353.00
2018-09-27T15:18:23.297Z,99353.00
2018-09-27T15:20:52.348Z,99355.00
2018-09-27T15:23:21.504Z,99351.00
2018-09-27T15:25:50.616Z,99348.00
2018-09-27T15:28:19.688Z,99344.00
2018-09-27T15:30:48.821Z,99341.00
2018-09-27T15:33:17.865Z,99339.00
2018-09-27T15:35:46.901Z,99337.00
2018-09-27T15:38:15.972Z,99335.00
2018-09-27T15:40:45.292Z,99326.00
2018-09-27T15:43:14.369Z,99330.00
2018-09-27T15:45:43.434Z,99337.00
2018-09-27T15:48:12.509Z,99330.00
2018-09-27T15:50:41.548Z,99327.00
2018-09-27T15:53:10.896Z,99330.00
2018-09-27T15:55:40.077Z,99315.00
2018-09-27T15:58:09.064Z,99323.00
2018-09-27T16:00:38.284Z,99326.00
2018-09-27T16:03:07.460Z,99324.00
2018-09-27T16:05:36.557Z,99317.00
2018-09-27T16:08:05.656Z,99322.00
2018-09-27T16:10:34.898Z,99319.00
2018-09-27T16:13:03.920Z,99319.00
2018-09-27T16:15:33.553Z,99319.00
2018-09-27T16:18:02.792Z,99324.00
2018-09-27T16:20:31.888Z,99318.00
2018-09-27T16:23:00.933Z,99317.00
2018-09-27T16:25:30.025Z,99322.00
2018-09-27T16:27:59.174Z,99324.00
2018-09-27T16:30:28.332Z,99321.00
2018-09-27T16:32:57.525Z,99322.00
2018-09-27T16:35:26.680Z,99314.00
2018-09-27T16:37:55.772Z,99317.00
2018-09-27T16:40:25.075Z,99319.00
2018-09-27T16:42:54.088Z,99314.00
2018-09-27T16:45:23.148Z,99313.00
2018-09-27T16:47:52.269Z,99310.00
2018-09-27T16:50:21.287Z,99307.00
2018-09-27T16:52:51.378Z,99302.00
2018-09-27T16:55:20.817Z,99305.00
2018-09-27T16:57:49.852Z,99308.00
2018-09-27T17:00:19.176Z,99306.00
2018-09-27T17:02:48.260Z,99307.00
2018-09-27T17:05:17.329Z,99308.00
2018-09-27T17:07:46.392Z,99312.00
2018-09-27T17:10:15.560Z,99311.00
2018-09-27T17:12:44.605Z,99306.00
2018-09-27T17:15:13.740Z,99311.00
2018-09-27T17:17:42.946Z,99307.00
2018-09-27T17:20:12.137Z,99306.00
2018-09-27T17:22:41.272Z,99304.00
2018-09-27T17:25:10.369Z,99303.00
2018-09-27T17:27:39.803Z,99305.00
2018-09-27T17:30:09.284Z,99303.00
2018-09-27T17:32:38.380Z,99301.00
2018-09-27T17:35:07.436Z,99299.00
2018-09-27T17:37:36.567Z,99297.00
2018-09-27T17:40:06.201Z,99299.00
2018-09-27T17:42:35.227Z,99303.00
2018-09-27T17:45:04.397Z,99296.00
2018-09-27T17:47:33.484Z,99306.00
2018-09-27T17:50:02.712Z,99305.00
2018-09-27T17:52:31.835Z,99309.00
2018-09-27T17:55:00.920Z,99306.00
2018-09-27T17:57:30.008Z,99308.00
2018-09-27T17:59:59.188Z,99307.00
2018-09-27T18:02:28.264Z,99306.00
2018-09-27T18:04:57.372Z,99308.00
2018-09-27T18:07:26.563Z,99304.00
2018-09-27T18:09:55.567Z,99309.00
2018-09-27T18:12:24.616Z,99310.00
2018-09-27T18:14:53.713Z,99314.00
2018-09-27T18:17:22.772Z,99315.00
2018-09-27T18:19:51.905Z,99313.00
2018-09-27T18:22:20.979Z,99314.00
2018-09-27T18:24:50.048Z,99309.00
2018-09-27T18:27:19.144Z,99310.00
2018-09-27T18:29:48.240Z,99313.00
2018-09-27T18:32:17.356Z,99312.00
2018-09-27T18:34:46.423Z,99310.00
2018-09-27T18:37:15.517Z,99315.00
2018-09-27T18:39:44.632Z,99314.00
2018-09-27T18:42:13.761Z,99312.00
2018-09-27T18:44:42.903Z,99309.00
2018-09-27T18:47:11.944Z,99306.00
2018-09-27T18:49:41.012Z,99304.00
2018-09-27T18:52:10.108Z,99308.00
2018-09-27T18:54:39.341Z,99308.00
2018-09-27T18:57:08.412Z,99305.00
2018-09-27T18:59:37.564Z,99304.00
2018-09-27T19:02:06.852Z,99305.00
2018-09-27T19:04:36.013Z,99310.00
2018-09-27T19:07:05.125Z,99312.00
2018-09-27T19:09:34.224Z,99311.00
2018-09-27T19:12:03.312Z,99307.00
2018-09-27T19:14:32.469Z,99304.00
2018-09-27T19:17:01.740Z,99308.00
2018-09-27T19:19:30.828Z,99303.00
2018-09-27T19:22:00.176Z,99303.00
2018-09-27T19:24:29.281Z,99298.00
2018-09-27T19:26:58.400Z,99295.00
2018-09-27T19:29:27.553Z,99294.00
2018-09-27T19:31:56.697Z,99293.00
2018-09-27T19:34:25.789Z,99296.00
2018-09-27T19:36:54.884Z,99296.00
2018-09-27T19:39:24.069Z,99293.00
2018-09-27T19:41:53.055Z,99302.00
2018-09-27T19:44:22.377Z,99295.00
2018-09-27T19:46:51.444Z,99295.00
2018-09-27T19:49:20.560Z,99295.00
2018-09-27T19:51:49.660Z,99301.00
2018-09-27T19:54:18.780Z,99298.00
2018-09-27T19:56:48.123Z,99296.00
2018-09-27T19:59:17.356Z,99300.00
2018-09-27T20:01:46.422Z,99294.00
2018-09-27T20:04:15.510Z,99298.00
2018-09-27T20:06:44.637Z,99295.00
2018-09-27T20:09:14.409Z,99294.00
2018-09-27T20:11:43.887Z,99296.00
2018-09-27T20:14:13.011Z,99299.00
2018-09-27T20:16:42.821Z,99305.00
2018-09-27T20:19:11.861Z,99311.00
2018-09-27T20:21:40.932Z,99305.00
2018-09-27T20:24:10.156Z,99302.00
2018-09-27T20:26:39.233Z,99304.00
2018-09-27T20:29:08.404Z,99308.00
2018-09-27T20:31:37.512Z,99306.00
2018-09-27T20:34:06.588Z,99303.00
2018-09-27T20:36:35.644Z,99300.00
2018-09-27T20:39:06.072Z,99299.00
2018-09-27T20:41:35.568Z,99304.00
2018-09-27T20:44:05.061Z,99298.00
2018-09-27T20:46:34.145Z,99306.00
2018-09-27T20:49:03.268Z,99306.00
2018-09-27T20:51:32.473Z,99305.00
2018-09-27T20:54:01.583Z,99302.00
2018-09-27T20:56:31.156Z,99306.00
2018-09-27T20:59:00.300Z,99306.00
2018-09-27T21:01:29.344Z,99302.00
2018-09-27T21:03:58.443Z,99306.00
2018-09-27T21:06:27.560Z,99306.00
2018-09-27T21:08:56.692Z,99306.00
2018-09-27T21:11:25.792Z,99309.00
2018-09-27T21:13:54.873Z,99303.00
2018-09-27T21:16:23.952Z,99304.00
2018-09-27T21:18:52.987Z,99304.00
2018-09-27T21:21:22.318Z,99303.00
2018-09-27T21:23:51.340Z,99301.00
2018-09-27T21:26:20.437Z,99305.00
2018-09-27T21:28:49.500Z,99307.00
2018-09-27T21:31:19.344Z,99304.00
2018-09-27T21:33:48.465Z,99302.00
2018-09-27T21:36:17.572Z,99305.00
2018-09-27T21:38:46.664Z,99304.00
2018-09-27T21:41:15.760Z,99301.00
2018-09-27T21:43:45.201Z,99298.00
2018-09-27T21:46:14.284Z,99291.00
2018-09-27T21:48:43.404Z,99287.00
2018-09-27T21:51:12.468Z,99286.00
2018-09-27T21:53:41.647Z,99291.00
2018-09-27T21:56:10.732Z,99287.00
2018-09-27T21:58:40.285Z,99284.00
2018-09-27T22:01:09.381Z,99284.00
2018-09-27T22:03:38.951Z,99277.00
2018-09-27T22:06:08.080Z,99277.00
2018-09-27T22:08:37.308Z,99281.00
2018-09-27T22:11:06.420Z,99281.00
2018-09-27T22:13:35.580Z,99285.00
2018-09-27T22:16:04.648Z,99284.00
2018-09-27T22:18:33.768Z,99280.00
2018-09-27T22:21:03.132Z,99277.00
2018-09-27T22:23:32.252Z,99277.00
2018-09-27T22:26:01.414Z,99274.00
2018-09-27T22:28:30.557Z,99278.00
2018-09-27T22:30:59.616Z,99274.00
2018-09-27T22:33:28.683Z,99276.00
2018-09-27T22:35:57.832Z,99280.00
2018-09-27T22:38:27.823Z,99274.00
2018-09-27T22:40:56.952Z,99270.00
2018-09-27T22:43:26.028Z,99267.00
2018-09-27T22:45:55.120Z,99267.00
2018-09-27T22:48:24.241Z,99259.00
2018-09-27T22:50:53.337Z,99262.00
2018-09-27T22:53:22.397Z,99258.00
2018-09-27T22:55:51.526Z,99256.00
2018-09-27T22:58:20.655Z,99260.00
2018-09-27T23:00:49.796Z,99257.00
2018-09-27T23:03:18.873Z,99257.00
2018-09-27T23:05:48.020Z,99260.00
2018-09-27T23:08:17.276Z,99262.00
2018-09-27T23:10:46.368Z,99261.00
2018-09-27T23:13:15.505Z,99258.00
2018-09-27T23:15:44.868Z,99255.00
2018-09-27T23:18:13.996Z,99252.00
2018-09-27T23:20:43.056Z,99257.00
2018-09-27T23:23:12.592Z,99251.00
2018-09-27T23:25:41.693Z,99257.00
2018-09-27T23:28:10.797Z,99256.00
2018-09-27T23:30:39.949Z,99254.00
2018-09-27T23:33:08.981Z,99251.00
2018-09-27T23:35:38.041Z,99258.00
2018-09-27T23:38:07.142Z,99258.00
2018-09-27T23:40:36.233Z,99256.00
2018-09-27T23:43:05.362Z,99256.00
2018-09-27T23:45:34.482Z,99265.00
2018-09-27T23:48:03.573Z,99263.00
2018-09-27T23:50:32.656Z,99265.00
2018-09-27T23:53:02.112Z,99267.00
2018-09-27T23:55:31.223Z,99261.00
2018-09-27T23:58:00.345Z,99259.00
